KLFI/LFI METAR and TAF weather

Enter ICAO airport designator
Station Type Date Time Source
KLFI METAR 2020/09/22 21:56 UTC NOAA

KLFI 222156Z 27009KT 10SM CLR 19/07 A3006 RMK AO2A SLP186 T01930074 $


Station Type Date Time Source
KLFI Decoded METAR 2020/09/22 21:56 UTC NOAA

Langley Air Force Base, VA, United States (KLFI) 37-05N 076-21W 6M
Sep 22, 2020 - 05:56 PM EDT / 2020.09.22 2156 UTC
Wind: from the W (270 degrees) at 10 MPH (9 KT):0
Visibility: 10 mile(s):0
Sky conditions: clear
Temperature: 66.7 F (19.3 C)
Dew Point: 45.3 F (7.4 C)
Relative Humidity: 45%
Pressure (altimeter): 30.06 in. Hg (1017 hPa)
ob: KLFI 222156Z 27009KT 10SM CLR 19/07 A3006 RMK AO2A SLP186 T01930074
cycle: 22

Station Type Date Time Source
KLFI TAF 2020/09/22 17:07 UTC NOAA

TAF KLFI 221700Z 2217/2323 31012KT 9999 SKC QNH2994INS TX21/2220Z TN12/2309Z

Example: see airport list